sensor_id;sensor_type;location;lat;lon;timestamp;P1;durP1;ratioP1;P2;durP2;ratioP2
215;SDS011;70668;48.81286795;9.14184224;2024-03-23T00:55:01;10.40;;;5.77;;
215;SDS011;70668;48.81286795;9.14184224;2024-03-23T00:57:27;11.30;;;6.03;;
215;SDS011;70668;48.81286795;9.14184224;2024-03-23T00:59:53;10.57;;;5.77;;
215;SDS011;70668;48.81286795;9.14184224;2024-03-23T01:02:19;13.30;;;5.57;;
215;SDS011;70668;48.81286795;9.14184224;2024-03-23T01:04:45;10.33;;;4.87;;
215;SDS011;70668;48.81286795;9.14184224;2024-03-23T01:07:11;10.63;;;5.33;;
215;SDS011;70668;48.81286795;9.14184224;2024-03-23T01:09:39;7.30;;;4.70;;
215;SDS011;70668;48.81286795;9.14184224;2024-03-23T01:12:05;7.87;;;4.50;;
215;SDS011;70668;48.81286795;9.14184224;2024-03-23T01:14:32;7.73;;;4.03;;
215;SDS011;70668;48.81286795;9.14184224;2024-03-23T01:16:58;7.83;;;4.00;;
215;SDS011;70668;48.81286795;9.14184224;2024-03-23T01:19:24;8.47;;;4.40;;
215;SDS011;70668;48.81286795;9.14184224;2024-03-23T01:21:50;7.10;;;4.00;;
215;SDS011;70668;48.81286795;9.14184224;2024-03-23T01:24:16;11.30;;;4.33;;
215;SDS011;70668;48.81286795;9.14184224;2024-03-23T01:26:44;7.33;;;4.37;;
215;SDS011;70668;48.81286795;9.14184224;2024-03-23T01:29:10;6.70;;;3.90;;
215;SDS011;70668;48.81286795;9.14184224;2024-03-23T01:31:37;7.70;;;4.20;;
215;SDS011;70668;48.81286795;9.14184224;2024-03-23T01:34:02;8.33;;;4.20;;
215;SDS011;70668;48.81286795;9.14184224;2024-03-23T01:36:28;8.50;;;4.17;;
215;SDS011;70668;48.81286795;9.14184224;2024-03-23T01:38:54;7.30;;;4.13;;
215;SDS011;70668;48.81286795;9.14184224;2024-03-23T01:41:20;10.33;;;4.40;;
215;SDS011;70668;48.81286795;9.14184224;2024-03-23T01:43:49;7.67;;;4.27;;
215;SDS011;70668;48.81286795;9.14184224;2024-03-23T01:46:15;7.70;;;3.97;;
215;SDS011;70668;48.81286795;9.14184224;2024-03-23T01:48:41;7.40;;;4.20;;
215;SDS011;70668;48.81286795;9.14184224;2024-03-23T01:51:07;6.80;;;3.97;;
215;SDS011;70668;48.81286795;9.14184224;2024-03-23T01:53:34;6.80;;;4.23;;
215;SDS011;70668;48.81286795;9.14184224;2024-03-23T01:56:00;6.90;;;4.10;;
215;SDS011;70668;48.81286795;9.14184224;2024-03-23T01:58:28;8.77;;;4.20;;
215;SDS011;70668;48.81286795;9.14184224;2024-03-23T02:00:56;8.43;;;4.40;;
215;SDS011;70668;48.81286795;9.14184224;2024-03-23T02:03:23;9.20;;;4.57;;
215;SDS011;70668;48.81286795;9.14184224;2024-03-23T02:05:49;8.33;;;4.57;;
215;SDS011;70668;48.81286795;9.14184224;2024-03-23T02:08:15;8.90;;;4.47;;
215;SDS011;70668;48.81286795;9.14184224;2024-03-23T02:10:42;8.00;;;4.40;;
215;SDS011;70668;48.81286795;9.14184224;2024-03-23T02:13:09;7.77;;;4.40;;
215;SDS011;70668;48.81286795;9.14184224;2024-03-23T02:15:35;7.40;;;4.40;;
215;SDS011;70668;48.81286795;9.14184224;2024-03-23T02:18:04;8.00;;;4.53;;
215;SDS011;70668;48.81286795;9.14184224;2024-03-23T02:20:30;11.03;;;4.50;;
215;SDS011;70668;48.81286795;9.14184224;2024-03-23T02:22:58;8.57;;;4.27;;
215;SDS011;70668;48.81286795;9.14184224;2024-03-23T02:25:24;6.90;;;4.50;;
215;SDS011;70668;48.81286795;9.14184224;2024-03-23T02:27:50;8.80;;;4.33;;
215;SDS011;70668;48.81286795;9.14184224;2024-03-23T02:30:16;8.83;;;4.80;;
215;SDS011;70668;48.81286795;9.14184224;2024-03-23T02:32:42;7.10;;;4.50;;
215;SDS011;70668;48.81286795;9.14184224;2024-03-23T02:35:08;9.20;;;4.40;;
215;SDS011;70668;48.81286795;9.14184224;2024-03-23T02:37:34;8.50;;;4.33;;
215;SDS011;70668;48.81286795;9.14184224;2024-03-23T02:40:03;8.53;;;4.60;;
215;SDS011;70668;48.81286795;9.14184224;2024-03-23T02:42:29;8.20;;;4.40;;
215;SDS011;70668;48.81286795;9.14184224;2024-03-23T02:44:55;8.30;;;4.50;;
215;SDS011;70668;48.81286795;9.14184224;2024-03-23T02:47:22;8.47;;;4.50;;
215;SDS011;70668;48.81286795;9.14184224;2024-03-23T02:49:48;8.97;;;4.57;;
215;SDS011;70668;48.81286795;9.14184224;2024-03-23T02:52:14;7.80;;;4.27;;
215;SDS011;70668;48.81286795;9.14184224;2024-03-23T02:54:40;6.97;;;4.17;;
215;SDS011;70668;48.81286795;9.14184224;2024-03-23T02:57:09;8.47;;;4.93;;
215;SDS011;70668;48.81286795;9.14184224;2024-03-23T02:59:35;6.90;;;4.57;;
215;SDS011;70668;48.81286795;9.14184224;2024-03-23T03:02:01;10.60;;;4.80;;
215;SDS011;70668;48.81286795;9.14184224;2024-03-23T03:04:27;8.63;;;4.30;;
215;SDS011;70668;48.81286795;9.14184224;2024-03-23T03:06:53;7.17;;;4.10;;
215;SDS011;70668;48.81286795;9.14184224;2024-03-23T03:09:19;9.23;;;4.60;;
215;SDS011;70668;48.81286795;9.14184224;2024-03-23T03:11:45;7.60;;;4.40;;
215;SDS011;70668;48.81286795;9.14184224;2024-03-23T03:14:13;6.83;;;4.20;;
215;SDS011;70668;48.81286795;9.14184224;2024-03-23T03:16:39;9.60;;;4.80;;
215;SDS011;70668;48.81286795;9.14184224;2024-03-23T03:19:05;8.40;;;4.60;;
215;SDS011;70668;48.81286795;9.14184224;2024-03-23T03:21:31;6.80;;;4.20;;
215;SDS011;70668;48.81286795;9.14184224;2024-03-23T03:23:57;12.93;;;4.50;;
215;SDS011;70668;48.81286795;9.14184224;2024-03-23T03:26:23;7.53;;;4.20;;
215;SDS011;70668;48.81286795;9.14184224;2024-03-23T03:28:49;7.77;;;4.20;;
215;SDS011;70668;48.81286795;9.14184224;2024-03-23T03:31:18;7.43;;;4.30;;
215;SDS011;70668;48.81286795;9.14184224;2024-03-23T03:33:44;8.73;;;4.47;;
215;SDS011;70668;48.81286795;9.14184224;2024-03-23T03:36:10;7.40;;;4.43;;
215;SDS011;70668;48.81286795;9.14184224;2024-03-23T03:38:36;10.83;;;4.43;;
215;SDS011;70668;48.81286795;9.14184224;2024-03-23T03:41:03;7.83;;;4.20;;
215;SDS011;70668;48.81286795;9.14184224;2024-03-23T03:43:29;7.90;;;4.20;;
215;SDS011;70668;48.81286795;9.14184224;2024-03-23T03:45:55;8.50;;;4.50;;
215;SDS011;70668;48.81286795;9.14184224;2024-03-23T03:48:25;7.33;;;4.27;;
215;SDS011;70668;48.81286795;9.14184224;2024-03-23T03:50:51;7.33;;;4.50;;
215;SDS011;70668;48.81286795;9.14184224;2024-03-23T03:53:18;10.83;;;4.57;;
215;SDS011;70668;48.81286795;9.14184224;2024-03-23T03:55:44;9.33;;;4.50;;
215;SDS011;70668;48.81286795;9.14184224;2024-03-23T03:58:10;9.40;;;4.70;;
215;SDS011;70668;48.81286795;9.14184224;2024-03-23T04:00:36;6.93;;;4.53;;
215;SDS011;70668;48.81286795;9.14184224;2024-03-23T04:03:02;7.50;;;4.10;;
215;SDS011;70668;48.81286795;9.14184224;2024-03-23T04:05:31;8.93;;;4.83;;
215;SDS011;70668;48.81286795;9.14184224;2024-03-23T04:07:56;12.07;;;5.10;;
215;SDS011;70668;48.81286795;9.14184224;2024-03-23T04:10:22;8.63;;;5.20;;
215;SDS011;70668;48.81286795;9.14184224;2024-03-23T04:12:48;8.73;;;4.80;;
215;SDS011;70668;48.81286795;9.14184224;2024-03-23T04:15:14;7.90;;;4.73;;
215;SDS011;70668;48.81286795;9.14184224;2024-03-23T04:17:40;11.63;;;4.40;;
215;SDS011;70668;48.81286795;9.14184224;2024-03-23T04:20:07;7.43;;;4.50;;
215;SDS011;70668;48.81286795;9.14184224;2024-03-23T04:22:36;7.70;;;4.13;;
215;SDS011;70668;48.81286795;9.14184224;2024-03-23T04:25:03;15.30;;;4.40;;
215;SDS011;70668;48.81286795;9.14184224;2024-03-23T04:27:29;7.50;;;4.50;;
215;SDS011;70668;48.81286795;9.14184224;2024-03-23T04:29:55;7.90;;;4.67;;
215;SDS011;70668;48.81286795;9.14184224;2024-03-23T04:32:21;13.90;;;5.83;;
215;SDS011;70668;48.81286795;9.14184224;2024-03-23T04:34:47;9.30;;;6.13;;
215;SDS011;70668;48.81286795;9.14184224;2024-03-23T04:37:13;10.20;;;6.07;;
215;SDS011;70668;48.81286795;9.14184224;2024-03-23T04:39:42;10.93;;;6.30;;
215;SDS011;70668;48.81286795;9.14184224;2024-03-23T04:42:08;14.87;;;7.00;;
215;SDS011;70668;48.81286795;9.14184224;2024-03-23T04:44:33;14.43;;;7.37;;
215;SDS011;70668;48.81286795;9.14184224;2024-03-23T04:46:59;12.17;;;7.10;;
215;SDS011;70668;48.81286795;9.14184224;2024-03-23T04:49:26;12.73;;;7.37;;
215;SDS011;70668;48.81286795;9.14184224;2024-03-23T04:51:52;17.27;;;8.63;;
215;SDS011;70668;48.81286795;9.14184224;2024-03-23T04:54:18;17.10;;;9.40;;
215;SDS011;70668;48.81286795;9.14184224;2024-03-23T04:56:46;18.33;;;10.10;;
215;SDS011;70668;48.81286795;9.14184224;2024-03-23T04:59:12;17.40;;;10.47;;
215;SDS011;70668;48.81286795;9.14184224;2024-03-23T05:01:38;18.37;;;10.10;;
215;SDS011;70668;48.81286795;9.14184224;2024-03-23T05:04:08;28.20;;;13.87;;
215;SDS011;70668;48.81286795;9.14184224;2024-03-23T05:06:34;24.87;;;13.50;;
215;SDS011;70668;48.81286795;9.14184224;2024-03-23T05:08:59;29.00;;;15.80;;
215;SDS011;70668;48.81286795;9.14184224;2024-03-23T05:11:25;27.73;;;15.80;;
215;SDS011;70668;48.81286795;9.14184224;2024-03-23T05:13:54;29.63;;;16.77;;
215;SDS011;70668;48.81286795;9.14184224;2024-03-23T05:16:20;30.40;;;16.50;;
215;SDS011;70668;48.81286795;9.14184224;2024-03-23T05:18:46;27.03;;;15.30;;
215;SDS011;70668;48.81286795;9.14184224;2024-03-23T05:21:12;31.53;;;16.63;;
215;SDS011;70668;48.81286795;9.14184224;2024-03-23T05:23:38;30.90;;;16.20;;
215;SDS011;70668;48.81286795;9.14184224;2024-03-23T05:26:04;28.60;;;15.93;;
215;SDS011;70668;48.81286795;9.14184224;2024-03-23T05:28:29;29.10;;;15.90;;
215;SDS011;70668;48.81286795;9.14184224;2024-03-23T05:30:58;28.43;;;16.80;;
215;SDS011;70668;48.81286795;9.14184224;2024-03-23T05:33:24;29.53;;;15.70;;
215;SDS011;70668;48.81286795;9.14184224;2024-03-23T05:35:55;39.33;;;16.97;;
215;SDS011;70668;48.81286795;9.14184224;2024-03-23T05:38:22;28.90;;;15.80;;
215;SDS011;70668;48.81286795;9.14184224;2024-03-23T05:40:52;27.70;;;15.70;;
215;SDS011;70668;48.81286795;9.14184224;2024-03-23T05:43:19;28.60;;;16.30;;
215;SDS011;70668;48.81286795;9.14184224;2024-03-23T05:45:45;24.43;;;13.90;;
215;SDS011;70668;48.81286795;9.14184224;2024-03-23T05:48:13;24.03;;;13.00;;
215;SDS011;70668;48.81286795;9.14184224;2024-03-23T05:50:39;23.80;;;12.00;;
215;SDS011;70668;48.81286795;9.14184224;2024-03-23T05:53:05;23.07;;;13.53;;
215;SDS011;70668;48.81286795;9.14184224;2024-03-23T05:55:31;19.47;;;10.33;;
215;SDS011;70668;48.81286795;9.14184224;2024-03-23T05:57:57;16.60;;;8.83;;
215;SDS011;70668;48.81286795;9.14184224;2024-03-23T06:00:23;10.37;;;5.73;;
215;SDS011;70668;48.81286795;9.14184224;2024-03-23T06:02:49;9.03;;;5.60;;
215;SDS011;70668;48.81286795;9.14184224;2024-03-23T06:05:18;12.40;;;5.73;;
215;SDS011;70668;48.81286795;9.14184224;2024-03-23T06:07:44;9.33;;;5.43;;
215;SDS011;70668;48.81286795;9.14184224;2024-03-23T06:10:10;8.00;;;5.10;;
215;SDS011;70668;48.81286795;9.14184224;2024-03-23T06:12:36;8.53;;;5.00;;
215;SDS011;70668;48.81286795;9.14184224;2024-03-23T06:15:02;9.43;;;5.47;;
215;SDS011;70668;48.81286795;9.14184224;2024-03-23T06:17:29;8.30;;;4.87;;
215;SDS011;70668;48.81286795;9.14184224;2024-03-23T06:19:54;9.03;;;5.07;;
215;SDS011;70668;48.81286795;9.14184224;2024-03-23T06:22:23;9.23;;;4.87;;
215;SDS011;70668;48.81286795;9.14184224;2024-03-23T06:24:49;8.07;;;4.10;;
215;SDS011;70668;48.81286795;9.14184224;2024-03-23T06:27:15;6.60;;;3.90;;
215;SDS011;70668;48.81286795;9.14184224;2024-03-23T06:29:41;6.63;;;3.70;;
215;SDS011;70668;48.81286795;9.14184224;2024-03-23T06:32:07;6.60;;;3.27;;
215;SDS011;70668;48.81286795;9.14184224;2024-03-23T06:34:33;6.30;;;3.60;;
215;SDS011;70668;48.81286795;9.14184224;2024-03-23T06:36:59;6.17;;;3.33;;
215;SDS011;70668;48.81286795;9.14184224;2024-03-23T06:39:27;6.13;;;3.33;;
215;SDS011;70668;48.81286795;9.14184224;2024-03-23T06:41:53;4.40;;;2.73;;
215;SDS011;70668;48.81286795;9.14184224;2024-03-23T06:44:20;8.03;;;2.67;;
215;SDS011;70668;48.81286795;9.14184224;2024-03-23T06:46:46;4.40;;;2.20;;
215;SDS011;70668;48.81286795;9.14184224;2024-03-23T06:49:13;3.60;;;2.17;;
215;SDS011;70668;48.81286795;9.14184224;2024-03-23T06:51:39;5.83;;;2.43;;
215;SDS011;70668;48.81286795;9.14184224;2024-03-23T06:54:05;3.87;;;2.10;;
215;SDS011;70668;48.81286795;9.14184224;2024-03-23T06:56:33;4.27;;;2.20;;
215;SDS011;70668;48.81286795;9.14184224;2024-03-23T06:59:00;3.50;;;2.10;;
215;SDS011;70668;48.81286795;9.14184224;2024-03-23T07:01:25;3.30;;;2.00;;
215;SDS011;70668;48.81286795;9.14184224;2024-03-23T07:03:51;3.37;;;1.90;;
215;SDS011;70668;48.81286795;9.14184224;2024-03-23T07:06:17;3.10;;;1.83;;
215;SDS011;70668;48.81286795;9.14184224;2024-03-23T07:08:43;3.80;;;2.00;;
215;SDS011;70668;48.81286795;9.14184224;2024-03-23T07:11:09;2.90;;;1.70;;
215;SDS011;70668;48.81286795;9.14184224;2024-03-23T07:13:37;3.23;;;1.70;;
215;SDS011;70668;48.81286795;9.14184224;2024-03-23T07:16:04;2.60;;;1.60;;
215;SDS011;70668;48.81286795;9.14184224;2024-03-23T07:18:30;2.80;;;1.70;;
215;SDS011;70668;48.81286795;9.14184224;2024-03-23T07:20:56;3.53;;;1.70;;
215;SDS011;70668;48.81286795;9.14184224;2024-03-23T07:23:23;2.93;;;1.60;;
215;SDS011;70668;48.81286795;9.14184224;2024-03-23T07:25:58;3.00;;;1.70;;
215;SDS011;70668;48.81286795;9.14184224;2024-03-23T07:28:24;2.87;;;1.63;;
215;SDS011;70668;48.81286795;9.14184224;2024-03-23T07:31:03;2.70;;;1.63;;
215;SDS011;70668;48.81286795;9.14184224;2024-03-23T07:33:30;3.00;;;1.70;;
215;SDS011;70668;48.81286795;9.14184224;2024-03-23T07:35:57;3.10;;;1.80;;
215;SDS011;70668;48.81286795;9.14184224;2024-03-23T07:38:23;6.53;;;1.97;;
215;SDS011;70668;48.81286795;9.14184224;2024-03-23T07:40:49;3.10;;;1.90;;
215;SDS011;70668;48.81286795;9.14184224;2024-03-23T07:43:15;3.10;;;1.73;;
215;SDS011;70668;48.81286795;9.14184224;2024-03-23T07:45:41;3.73;;;1.73;;
215;SDS011;70668;48.81286795;9.14184224;2024-03-23T07:48:10;4.13;;;1.73;;
215;SDS011;70668;48.81286795;9.14184224;2024-03-23T07:50:36;2.83;;;1.67;;
215;SDS011;70668;48.81286795;9.14184224;2024-03-23T07:53:02;2.87;;;1.70;;
215;SDS011;70668;48.81286795;9.14184224;2024-03-23T07:55:28;2.73;;;1.67;;
215;SDS011;70668;48.81286795;9.14184224;2024-03-23T07:57:54;2.63;;;1.60;;
215;SDS011;70668;48.81286795;9.14184224;2024-03-23T08:00:20;2.60;;;1.60;;
215;SDS011;70668;48.81286795;9.14184224;2024-03-23T08:02:46;3.13;;;1.73;;
215;SDS011;70668;48.81286795;9.14184224;2024-03-23T08:05:15;2.60;;;1.70;;
215;SDS011;70668;48.81286795;9.14184224;2024-03-23T08:07:40;3.07;;;1.80;;
215;SDS011;70668;48.81286795;9.14184224;2024-03-23T08:10:06;3.70;;;2.00;;
215;SDS011;70668;48.81286795;9.14184224;2024-03-23T08:12:32;3.80;;;2.00;;
215;SDS011;70668;48.81286795;9.14184224;2024-03-23T08:14:58;3.30;;;1.97;;
215;SDS011;70668;48.81286795;9.14184224;2024-03-23T08:17:24;6.23;;;2.03;;
215;SDS011;70668;48.81286795;9.14184224;2024-03-23T08:19:50;3.87;;;2.37;;
215;SDS011;70668;48.81286795;9.14184224;2024-03-23T08:22:18;4.17;;;2.23;;
215;SDS011;70668;48.81286795;9.14184224;2024-03-23T08:24:44;4.40;;;1.90;;
215;SDS011;70668;48.81286795;9.14184224;2024-03-23T08:27:10;2.97;;;1.70;;
215;SDS011;70668;48.81286795;9.14184224;2024-03-23T08:29:36;3.47;;;1.93;;
215;SDS011;70668;48.81286795;9.14184224;2024-03-23T08:32:02;4.43;;;1.93;;
215;SDS011;70668;48.81286795;9.14184224;2024-03-23T08:34:28;4.40;;;2.20;;
215;SDS011;70668;48.81286795;9.14184224;2024-03-23T08:36:54;6.70;;;2.13;;
215;SDS011;70668;48.81286795;9.14184224;2024-03-23T08:39:23;4.53;;;2.30;;
215;SDS011;70668;48.81286795;9.14184224;2024-03-23T08:41:50;7.07;;;2.50;;
215;SDS011;70668;48.81286795;9.14184224;2024-03-23T08:44:16;4.33;;;2.60;;
215;SDS011;70668;48.81286795;9.14184224;2024-03-23T08:46:42;3.73;;;2.40;;
215;SDS011;70668;48.81286795;9.14184224;2024-03-23T08:49:08;5.63;;;2.33;;
215;SDS011;70668;48.81286795;9.14184224;2024-03-23T08:51:34;6.13;;;2.47;;
215;SDS011;70668;48.81286795;9.14184224;2024-03-23T08:54:00;10.30;;;3.97;;
215;SDS011;70668;48.81286795;9.14184224;2024-03-23T08:56:28;8.38;;;3.50;;
215;SDS011;70668;48.81286795;9.14184224;2024-03-23T08:58:54;7.73;;;3.60;;
215;SDS011;70668;48.81286795;9.14184224;2024-03-23T09:01:20;7.47;;;3.10;;
215;SDS011;70668;48.81286795;9.14184224;2024-03-23T09:03:46;9.17;;;3.47;;
215;SDS011;70668;48.81286795;9.14184224;2024-03-23T09:06:14;8.40;;;3.83;;
215;SDS011;70668;48.81286795;9.14184224;2024-03-23T09:08:40;6.23;;;3.53;;
215;SDS011;70668;48.81286795;9.14184224;2024-03-23T09:11:06;6.90;;;3.53;;
215;SDS011;70668;48.81286795;9.14184224;2024-03-23T09:13:36;10.97;;;3.60;;
215;SDS011;70668;48.81286795;9.14184224;2024-03-23T09:16:03;7.30;;;3.53;;
215;SDS011;70668;48.81286795;9.14184224;2024-03-23T09:18:31;8.13;;;3.67;;
215;SDS011;70668;48.81286795;9.14184224;2024-03-23T09:20:57;8.60;;;4.00;;
215;SDS011;70668;48.81286795;9.14184224;2024-03-23T09:23:23;9.50;;;4.03;;
215;SDS011;70668;48.81286795;9.14184224;2024-03-23T09:25:49;11.27;;;4.60;;
215;SDS011;70668;48.81286795;9.14184224;2024-03-23T09:28:15;7.47;;;3.80;;
215;SDS011;70668;48.81286795;9.14184224;2024-03-23T09:30:44;9.07;;;4.03;;
215;SDS011;70668;48.81286795;9.14184224;2024-03-23T09:33:10;8.87;;;3.80;;
215;SDS011;70668;48.81286795;9.14184224;2024-03-23T09:35:36;11.23;;;4.40;;
215;SDS011;70668;48.81286795;9.14184224;2024-03-23T09:38:03;11.70;;;4.07;;
215;SDS011;70668;48.81286795;9.14184224;2024-03-23T09:40:29;10.87;;;4.20;;
215;SDS011;70668;48.81286795;9.14184224;2024-03-23T09:42:55;15.33;;;4.57;;
215;SDS011;70668;48.81286795;9.14184224;2024-03-23T09:45:21;10.20;;;4.20;;
215;SDS011;70668;48.81286795;9.14184224;2024-03-23T09:47:54;9.93;;;4.70;;
215;SDS011;70668;48.81286795;9.14184224;2024-03-23T09:50:21;11.70;;;4.77;;
215;SDS011;70668;48.81286795;9.14184224;2024-03-23T09:52:47;14.50;;;4.70;;
215;SDS011;70668;48.81286795;9.14184224;2024-03-23T09:55:13;10.10;;;5.07;;
215;SDS011;70668;48.81286795;9.14184224;2024-03-23T09:57:39;9.40;;;4.50;;
215;SDS011;70668;48.81286795;9.14184224;2024-03-23T10:00:06;9.07;;;4.23;;
215;SDS011;70668;48.81286795;9.14184224;2024-03-23T10:02:33;8.70;;;4.13;;
215;SDS011;70668;48.81286795;9.14184224;2024-03-23T10:05:03;12.83;;;4.60;;
215;SDS011;70668;48.81286795;9.14184224;2024-03-23T10:07:29;15.20;;;5.07;;
215;SDS011;70668;48.81286795;9.14184224;2024-03-23T10:09:55;12.33;;;5.50;;
215;SDS011;70668;48.81286795;9.14184224;2024-03-23T10:12:22;13.97;;;5.60;;
215;SDS011;70668;48.81286795;9.14184224;2024-03-23T10:14:49;10.50;;;4.33;;
215;SDS011;70668;48.81286795;9.14184224;2024-03-23T10:17:15;12.90;;;5.70;;
215;SDS011;70668;48.81286795;9.14184224;2024-03-23T10:19:43;10.27;;;4.70;;
215;SDS011;70668;48.81286795;9.14184224;2024-03-23T10:22:12;13.23;;;4.60;;
215;SDS011;70668;48.81286795;9.14184224;2024-03-23T10:24:39;9.20;;;4.90;;
215;SDS011;70668;48.81286795;9.14184224;2024-03-23T10:27:05;13.93;;;5.07;;
215;SDS011;70668;48.81286795;9.14184224;2024-03-23T10:29:31;9.07;;;4.60;;
215;SDS011;70668;48.81286795;9.14184224;2024-03-23T10:32:10;13.73;;;5.00;;
215;SDS011;70668;48.81286795;9.14184224;2024-03-23T10:34:37;9.10;;;4.30;;
215;SDS011;70668;48.81286795;9.14184224;2024-03-23T10:37:03;11.67;;;4.90;;
215;SDS011;70668;48.81286795;9.14184224;2024-03-23T10:39:33;10.83;;;5.10;;
215;SDS011;70668;48.81286795;9.14184224;2024-03-23T10:42:01;10.73;;;4.70;;
215;SDS011;70668;48.81286795;9.14184224;2024-03-23T10:44:29;11.33;;;4.77;;
215;SDS011;70668;48.81286795;9.14184224;2024-03-23T10:46:55;9.73;;;4.27;;
215;SDS011;70668;48.81286795;9.14184224;2024-03-23T10:49:21;10.30;;;3.67;;
215;SDS011;70668;48.81286795;9.14184224;2024-03-23T10:51:47;11.90;;;4.47;;
215;SDS011;70668;48.81286795;9.14184224;2024-03-23T10:54:13;11.50;;;4.73;;
215;SDS011;70668;48.81286795;9.14184224;2024-03-23T10:56:42;14.20;;;5.53;;
215;SDS011;70668;48.81286795;9.14184224;2024-03-23T10:59:08;13.17;;;6.00;;
215;SDS011;70668;48.81286795;9.14184224;2024-03-23T11:01:35;12.77;;;4.90;;
215;SDS011;70668;48.81286795;9.14184224;2024-03-23T11:04:29;14.37;;;5.33;;
215;SDS011;70668;48.81286795;9.14184224;2024-03-23T11:06:55;8.23;;;3.40;;
215;SDS011;70668;48.81286795;9.14184224;2024-03-23T11:12:23;8.90;;;4.20;;
215;SDS011;70668;48.81286795;9.14184224;2024-03-23T11:14:52;8.30;;;4.40;;
215;SDS011;70668;48.81286795;9.14184224;2024-03-23T11:17:19;9.40;;;4.50;;
215;SDS011;70668;48.81286795;9.14184224;2024-03-23T11:19:46;9.63;;;4.50;;
215;SDS011;70668;48.81286795;9.14184224;2024-03-23T11:25:13;9.60;;;4.00;;
215;SDS011;70668;48.81286795;9.14184224;2024-03-23T11:27:42;8.83;;;3.97;;
215;SDS011;70668;48.81286795;9.14184224;2024-03-23T11:30:11;8.53;;;3.90;;
215;SDS011;70668;48.81286795;9.14184224;2024-03-23T11:32:41;8.00;;;3.93;;
215;SDS011;70668;48.81286795;9.14184224;2024-03-23T11:35:08;7.07;;;4.10;;
215;SDS011;70668;48.81286795;9.14184224;2024-03-23T11:37:35;8.57;;;4.10;;
215;SDS011;70668;48.81286795;9.14184224;2024-03-23T11:40:01;10.63;;;4.73;;
215;SDS011;70668;48.81286795;9.14184224;2024-03-23T11:42:45;9.13;;;4.10;;
215;SDS011;70668;48.81286795;9.14184224;2024-03-23T11:45:11;7.60;;;3.80;;
215;SDS011;70668;48.81286795;9.14184224;2024-03-23T11:47:38;7.90;;;3.30;;
215;SDS011;70668;48.81286795;9.14184224;2024-03-23T11:50:04;8.40;;;3.70;;
215;SDS011;70668;48.81286795;9.14184224;2024-03-23T11:52:30;6.67;;;3.00;;
215;SDS011;70668;48.81286795;9.14184224;2024-03-23T11:55:02;12.53;;;3.37;;
215;SDS011;70668;48.81286795;9.14184224;2024-03-23T11:57:29;7.77;;;3.20;;
215;SDS011;70668;48.81286795;9.14184224;2024-03-23T11:59:58;6.97;;;2.80;;
215;SDS011;70668;48.81286795;9.14184224;2024-03-23T12:02:24;8.40;;;3.10;;
215;SDS011;70668;48.81286795;9.14184224;2024-03-23T12:04:50;8.17;;;2.97;;
215;SDS011;70668;48.81286795;9.14184224;2024-03-23T12:07:16;9.03;;;2.80;;
215;SDS011;70668;48.81286795;9.14184224;2024-03-23T12:09:44;9.23;;;2.83;;
215;SDS011;70668;48.81286795;9.14184224;2024-03-23T12:12:13;7.63;;;2.70;;
215;SDS011;70668;48.81286795;9.14184224;2024-03-23T12:14:41;16.27;;;3.20;;
215;SDS011;70668;48.81286795;9.14184224;2024-03-23T12:17:10;7.30;;;2.97;;
215;SDS011;70668;48.81286795;9.14184224;2024-03-23T12:19:37;6.27;;;2.47;;
215;SDS011;70668;48.81286795;9.14184224;2024-03-23T12:22:03;9.37;;;2.87;;
215;SDS011;70668;48.81286795;9.14184224;2024-03-23T12:24:29;9.33;;;3.30;;
215;SDS011;70668;48.81286795;9.14184224;2024-03-23T12:26:59;9.67;;;3.03;;
215;SDS011;70668;48.81286795;9.14184224;2024-03-23T12:29:26;6.87;;;2.80;;
215;SDS011;70668;48.81286795;9.14184224;2024-03-23T12:31:53;8.23;;;3.10;;
215;SDS011;70668;48.81286795;9.14184224;2024-03-23T12:34:21;13.70;;;3.63;;
215;SDS011;70668;48.81286795;9.14184224;2024-03-23T12:36:47;10.53;;;3.73;;
215;SDS011;70668;48.81286795;9.14184224;2024-03-23T12:39:13;8.50;;;3.67;;
215;SDS011;70668;48.81286795;9.14184224;2024-03-23T12:41:39;12.10;;;4.00;;
215;SDS011;70668;48.81286795;9.14184224;2024-03-23T12:44:05;8.23;;;3.50;;
215;SDS011;70668;48.81286795;9.14184224;2024-03-23T12:46:31;10.30;;;3.47;;
215;SDS011;70668;48.81286795;9.14184224;2024-03-23T12:48:57;12.43;;;3.87;;
215;SDS011;70668;48.81286795;9.14184224;2024-03-23T12:51:26;11.80;;;4.07;;
215;SDS011;70668;48.81286795;9.14184224;2024-03-23T12:53:54;16.47;;;3.87;;
215;SDS011;70668;48.81286795;9.14184224;2024-03-23T12:56:20;10.50;;;3.30;;
215;SDS011;70668;48.81286795;9.14184224;2024-03-23T12:58:46;10.20;;;3.30;;
215;SDS011;70668;48.81286795;9.14184224;2024-03-23T13:01:12;9.00;;;3.27;;
215;SDS011;70668;48.81286795;9.14184224;2024-03-23T13:03:38;15.57;;;3.60;;
215;SDS011;70668;48.81286795;9.14184224;2024-03-23T13:06:04;8.37;;;3.53;;
215;SDS011;70668;48.81286795;9.14184224;2024-03-23T13:08:33;8.60;;;3.70;;
215;SDS011;70668;48.81286795;9.14184224;2024-03-23T13:10:59;11.97;;;3.43;;
215;SDS011;70668;48.81286795;9.14184224;2024-03-23T13:13:27;11.43;;;3.60;;
215;SDS011;70668;48.81286795;9.14184224;2024-03-23T13:17:54;10.00;;;3.57;;
215;SDS011;70668;48.81286795;9.14184224;2024-03-23T13:20:20;10.13;;;3.30;;
215;SDS011;70668;48.81286795;9.14184224;2024-03-23T13:22:46;11.17;;;3.60;;
215;SDS011;70668;48.81286795;9.14184224;2024-03-23T13:25:12;10.10;;;3.60;;
215;SDS011;70668;48.81286795;9.14184224;2024-03-23T13:27:38;10.53;;;3.23;;
215;SDS011;70668;48.81286795;9.14184224;2024-03-23T13:30:04;10.67;;;3.47;;
215;SDS011;70668;48.81286795;9.14184224;2024-03-23T13:32:31;11.20;;;3.13;;
215;SDS011;70668;48.81286795;9.14184224;2024-03-23T13:35:00;9.10;;;3.00;;
215;SDS011;70668;48.81286795;9.14184224;2024-03-23T13:37:26;10.97;;;3.37;;
215;SDS011;70668;48.81286795;9.14184224;2024-03-23T13:39:52;8.07;;;2.50;;
215;SDS011;70668;48.81286795;9.14184224;2024-03-23T13:42:18;7.90;;;2.87;;
215;SDS011;70668;48.81286795;9.14184224;2024-03-23T13:44:44;11.50;;;2.90;;
215;SDS011;70668;48.81286795;9.14184224;2024-03-23T13:47:10;7.83;;;3.10;;
215;SDS011;70668;48.81286795;9.14184224;2024-03-23T13:49:36;10.90;;;3.10;;
215;SDS011;70668;48.81286795;9.14184224;2024-03-23T13:52:05;9.10;;;2.90;;
215;SDS011;70668;48.81286795;9.14184224;2024-03-23T13:54:31;8.63;;;3.10;;
215;SDS011;70668;48.81286795;9.14184224;2024-03-23T13:56:57;9.87;;;3.30;;
215;SDS011;70668;48.81286795;9.14184224;2024-03-23T13:59:23;7.60;;;2.93;;
215;SDS011;70668;48.81286795;9.14184224;2024-03-23T14:01:49;6.07;;;2.43;;
215;SDS011;70668;48.81286795;9.14184224;2024-03-23T14:04:16;7.83;;;2.93;;
215;SDS011;70668;48.81286795;9.14184224;2024-03-23T14:06:42;12.03;;;3.30;;